sensor_id;sensor_type;location;lat;lon;timestamp;P1;durP1;ratioP1;P2;durP2;ratioP2
15655;SDS011;7928;43.614;1.456;2023-03-05T00:00:08;41.43;;;29.37;;
15655;SDS011;7928;43.614;1.456;2023-03-05T00:02:36;41.33;;;27.83;;
15655;SDS011;7928;43.614;1.456;2023-03-05T00:05:04;39.20;;;28.30;;
15655;SDS011;7928;43.614;1.456;2023-03-05T00:07:31;43.40;;;28.37;;
15655;SDS011;7928;43.614;1.456;2023-03-05T00:09:58;44.50;;;29.73;;
15655;SDS011;7928;43.614;1.456;2023-03-05T00:12:26;39.37;;;29.03;;
15655;SDS011;7928;43.614;1.456;2023-03-05T00:14:54;43.37;;;29.90;;
15655;SDS011;7928;43.614;1.456;2023-03-05T00:17:21;43.57;;;29.73;;
15655;SDS011;7928;43.614;1.456;2023-03-05T00:19:48;46.30;;;30.10;;
15655;SDS011;7928;43.614;1.456;2023-03-05T00:22:15;47.50;;;30.27;;
15655;SDS011;7928;43.614;1.456;2023-03-05T00:24:42;47.40;;;29.43;;
15655;SDS011;7928;43.614;1.456;2023-03-05T00:27:09;44.23;;;29.87;;
15655;SDS011;7928;43.614;1.456;2023-03-05T00:29:36;42.13;;;27.93;;
15655;SDS011;7928;43.614;1.456;2023-03-05T00:32:04;39.80;;;28.07;;
15655;SDS011;7928;43.614;1.456;2023-03-05T00:34:32;42.47;;;28.77;;
15655;SDS011;7928;43.614;1.456;2023-03-05T00:37:00;46.23;;;28.60;;
15655;SDS011;7928;43.614;1.456;2023-03-05T00:39:27;38.27;;;28.97;;
15655;SDS011;7928;43.614;1.456;2023-03-05T00:41:54;40.90;;;29.70;;
15655;SDS011;7928;43.614;1.456;2023-03-05T00:44:21;39.00;;;27.53;;
15655;SDS011;7928;43.614;1.456;2023-03-05T00:46:48;40.47;;;28.70;;
15655;SDS011;7928;43.614;1.456;2023-03-05T00:49:16;48.03;;;29.07;;
15655;SDS011;7928;43.614;1.456;2023-03-05T00:51:43;40.57;;;28.23;;
15655;SDS011;7928;43.614;1.456;2023-03-05T00:54:10;40.23;;;28.87;;
15655;SDS011;7928;43.614;1.456;2023-03-05T00:56:38;39.23;;;28.17;;
15655;SDS011;7928;43.614;1.456;2023-03-05T00:59:05;45.67;;;29.73;;
15655;SDS011;7928;43.614;1.456;2023-03-05T01:01:32;37.40;;;27.07;;
15655;SDS011;7928;43.614;1.456;2023-03-05T01:03:59;37.67;;;27.57;;
15655;SDS011;7928;43.614;1.456;2023-03-05T01:06:28;40.80;;;29.47;;
15655;SDS011;7928;43.614;1.456;2023-03-05T01:08:54;38.33;;;26.67;;
15655;SDS011;7928;43.614;1.456;2023-03-05T01:11:23;36.47;;;26.33;;
15655;SDS011;7928;43.614;1.456;2023-03-05T01:13:50;41.40;;;28.57;;
15655;SDS011;7928;43.614;1.456;2023-03-05T01:16:17;42.30;;;28.20;;
15655;SDS011;7928;43.614;1.456;2023-03-05T01:18:44;42.53;;;28.23;;
15655;SDS011;7928;43.614;1.456;2023-03-05T01:21:11;41.20;;;28.50;;
15655;SDS011;7928;43.614;1.456;2023-03-05T01:23:39;43.63;;;27.57;;
15655;SDS011;7928;43.614;1.456;2023-03-05T01:26:06;39.37;;;28.13;;
15655;SDS011;7928;43.614;1.456;2023-03-05T01:28:33;38.73;;;27.53;;
15655;SDS011;7928;43.614;1.456;2023-03-05T01:31:05;41.70;;;28.63;;
15655;SDS011;7928;43.614;1.456;2023-03-05T01:33:32;39.20;;;27.67;;
15655;SDS011;7928;43.614;1.456;2023-03-05T01:35:59;38.13;;;27.50;;
15655;SDS011;7928;43.614;1.456;2023-03-05T01:38:27;44.27;;;28.83;;
15655;SDS011;7928;43.614;1.456;2023-03-05T01:40:55;40.63;;;27.87;;
15655;SDS011;7928;43.614;1.456;2023-03-05T01:43:24;41.70;;;28.07;;
15655;SDS011;7928;43.614;1.456;2023-03-05T01:48:55;39.37;;;27.83;;
15655;SDS011;7928;43.614;1.456;2023-03-05T01:51:27;40.70;;;29.03;;
15655;SDS011;7928;43.614;1.456;2023-03-05T01:53:56;42.60;;;28.10;;
15655;SDS011;7928;43.614;1.456;2023-03-05T01:56:27;39.67;;;28.37;;
15655;SDS011;7928;43.614;1.456;2023-03-05T01:58:56;38.50;;;27.93;;
15655;SDS011;7928;43.614;1.456;2023-03-05T02:01:28;43.40;;;28.17;;
15655;SDS011;7928;43.614;1.456;2023-03-05T02:03:57;39.63;;;28.13;;
15655;SDS011;7928;43.614;1.456;2023-03-05T02:06:24;39.63;;;27.63;;
15655;SDS011;7928;43.614;1.456;2023-03-05T02:08:52;41.53;;;28.73;;
15655;SDS011;7928;43.614;1.456;2023-03-05T02:11:19;42.10;;;28.43;;
15655;SDS011;7928;43.614;1.456;2023-03-05T02:13:47;39.93;;;28.07;;
15655;SDS011;7928;43.614;1.456;2023-03-05T02:16:14;42.27;;;29.13;;
15655;SDS011;7928;43.614;1.456;2023-03-05T02:18:42;45.57;;;28.70;;
15655;SDS011;7928;43.614;1.456;2023-03-05T02:21:10;44.40;;;27.40;;
15655;SDS011;7928;43.614;1.456;2023-03-05T02:23:37;42.67;;;29.17;;
15655;SDS011;7928;43.614;1.456;2023-03-05T02:26:06;40.37;;;28.67;;
15655;SDS011;7928;43.614;1.456;2023-03-05T02:28:34;37.37;;;26.20;;
15655;SDS011;7928;43.614;1.456;2023-03-05T02:31:07;38.77;;;27.93;;
15655;SDS011;7928;43.614;1.456;2023-03-05T02:33:35;38.97;;;27.20;;
15655;SDS011;7928;43.614;1.456;2023-03-05T02:36:02;40.53;;;27.53;;
15655;SDS011;7928;43.614;1.456;2023-03-05T02:38:31;39.10;;;27.67;;
15655;SDS011;7928;43.614;1.456;2023-03-05T02:40:59;40.33;;;27.03;;
15655;SDS011;7928;43.614;1.456;2023-03-05T02:43:26;40.83;;;29.10;;
15655;SDS011;7928;43.614;1.456;2023-03-05T02:45:53;38.77;;;28.43;;
15655;SDS011;7928;43.614;1.456;2023-03-05T02:48:20;40.27;;;27.60;;
15655;SDS011;7928;43.614;1.456;2023-03-05T02:50:47;43.33;;;28.60;;
15655;SDS011;7928;43.614;1.456;2023-03-05T02:53:15;40.83;;;28.53;;
15655;SDS011;7928;43.614;1.456;2023-03-05T02:55:46;41.33;;;28.53;;
15655;SDS011;7928;43.614;1.456;2023-03-05T02:58:13;41.87;;;27.40;;
15655;SDS011;7928;43.614;1.456;2023-03-05T03:00:40;41.33;;;27.87;;
15655;SDS011;7928;43.614;1.456;2023-03-05T03:03:08;39.77;;;27.80;;
15655;SDS011;7928;43.614;1.456;2023-03-05T03:05:35;43.73;;;27.87;;
15655;SDS011;7928;43.614;1.456;2023-03-05T03:08:02;41.77;;;27.33;;
15655;SDS011;7928;43.614;1.456;2023-03-05T03:10:29;40.57;;;27.40;;
15655;SDS011;7928;43.614;1.456;2023-03-05T03:12:58;37.20;;;27.00;;
15655;SDS011;7928;43.614;1.456;2023-03-05T03:15:25;40.30;;;26.40;;
15655;SDS011;7928;43.614;1.456;2023-03-05T03:17:52;40.10;;;26.90;;
15655;SDS011;7928;43.614;1.456;2023-03-05T03:20:20;40.23;;;27.13;;
15655;SDS011;7928;43.614;1.456;2023-03-05T03:22:47;38.77;;;27.50;;
15655;SDS011;7928;43.614;1.456;2023-03-05T03:25:14;42.20;;;29.13;;
15655;SDS011;7928;43.614;1.456;2023-03-05T03:27:52;40.77;;;29.50;;
15655;SDS011;7928;43.614;1.456;2023-03-05T03:30:20;38.47;;;27.10;;
15655;SDS011;7928;43.614;1.456;2023-03-05T03:32:47;43.03;;;27.40;;
15655;SDS011;7928;43.614;1.456;2023-03-05T03:35:15;44.30;;;29.83;;
15655;SDS011;7928;43.614;1.456;2023-03-05T03:37:42;39.87;;;27.40;;
15655;SDS011;7928;43.614;1.456;2023-03-05T03:40:10;41.70;;;27.63;;
15655;SDS011;7928;43.614;1.456;2023-03-05T03:42:37;40.83;;;26.97;;
15655;SDS011;7928;43.614;1.456;2023-03-05T03:45:05;42.53;;;27.47;;
15655;SDS011;7928;43.614;1.456;2023-03-05T03:47:34;40.93;;;27.90;;
15655;SDS011;7928;43.614;1.456;2023-03-05T03:50:01;40.30;;;27.90;;
15655;SDS011;7928;43.614;1.456;2023-03-05T03:52:28;40.37;;;27.40;;
15655;SDS011;7928;43.614;1.456;2023-03-05T03:54:55;41.90;;;27.20;;
15655;SDS011;7928;43.614;1.456;2023-03-05T03:57:25;40.53;;;27.73;;
15655;SDS011;7928;43.614;1.456;2023-03-05T03:59:53;38.10;;;26.00;;
15655;SDS011;7928;43.614;1.456;2023-03-05T04:02:20;38.53;;;27.67;;
15655;SDS011;7928;43.614;1.456;2023-03-05T04:04:49;39.43;;;27.77;;
15655;SDS011;7928;43.614;1.456;2023-03-05T04:07:16;44.10;;;28.53;;
15655;SDS011;7928;43.614;1.456;2023-03-05T04:09:43;39.67;;;27.43;;
15655;SDS011;7928;43.614;1.456;2023-03-05T04:12:10;41.83;;;28.03;;
15655;SDS011;7928;43.614;1.456;2023-03-05T04:14:42;39.03;;;27.07;;
15655;SDS011;7928;43.614;1.456;2023-03-05T04:17:10;41.63;;;28.13;;
15655;SDS011;7928;43.614;1.456;2023-03-05T04:19:37;39.07;;;26.90;;
15655;SDS011;7928;43.614;1.456;2023-03-05T04:22:07;41.80;;;27.57;;
15655;SDS011;7928;43.614;1.456;2023-03-05T04:24:36;39.83;;;27.23;;
15655;SDS011;7928;43.614;1.456;2023-03-05T04:27:03;40.87;;;25.97;;
15655;SDS011;7928;43.614;1.456;2023-03-05T04:29:31;43.20;;;28.00;;
15655;SDS011;7928;43.614;1.456;2023-03-05T04:31:58;40.60;;;27.30;;
15655;SDS011;7928;43.614;1.456;2023-03-05T04:34:25;37.87;;;26.63;;
15655;SDS011;7928;43.614;1.456;2023-03-05T04:36:52;41.13;;;26.00;;
15655;SDS011;7928;43.614;1.456;2023-03-05T04:39:20;37.97;;;26.53;;
15655;SDS011;7928;43.614;1.456;2023-03-05T04:41:47;40.97;;;28.03;;
15655;SDS011;7928;43.614;1.456;2023-03-05T04:44:14;39.93;;;26.47;;
15655;SDS011;7928;43.614;1.456;2023-03-05T04:46:42;47.83;;;27.33;;
15655;SDS011;7928;43.614;1.456;2023-03-05T04:49:09;38.77;;;26.77;;
15655;SDS011;7928;43.614;1.456;2023-03-05T04:51:36;42.53;;;28.07;;
15655;SDS011;7928;43.614;1.456;2023-03-05T04:54:03;42.73;;;27.60;;
15655;SDS011;7928;43.614;1.456;2023-03-05T04:56:31;42.13;;;26.07;;
15655;SDS011;7928;43.614;1.456;2023-03-05T04:58:59;42.53;;;28.40;;
15655;SDS011;7928;43.614;1.456;2023-03-05T05:01:26;39.20;;;26.90;;
15655;SDS011;7928;43.614;1.456;2023-03-05T05:03:53;38.57;;;27.20;;
15655;SDS011;7928;43.614;1.456;2023-03-05T05:06:20;39.27;;;27.37;;
15655;SDS011;7928;43.614;1.456;2023-03-05T05:08:46;36.13;;;25.17;;
15655;SDS011;7928;43.614;1.456;2023-03-05T05:11:14;39.17;;;26.33;;
15655;SDS011;7928;43.614;1.456;2023-03-05T05:13:43;41.13;;;26.70;;
15655;SDS011;7928;43.614;1.456;2023-03-05T05:16:10;40.00;;;27.20;;
15655;SDS011;7928;43.614;1.456;2023-03-05T05:18:37;42.07;;;27.33;;
15655;SDS011;7928;43.614;1.456;2023-03-05T05:21:08;40.53;;;26.80;;
15655;SDS011;7928;43.614;1.456;2023-03-05T05:23:36;40.50;;;27.27;;
15655;SDS011;7928;43.614;1.456;2023-03-05T05:26:04;39.60;;;26.57;;
15655;SDS011;7928;43.614;1.456;2023-03-05T05:28:32;40.63;;;25.90;;
15655;SDS011;7928;43.614;1.456;2023-03-05T05:31:07;42.77;;;29.67;;
15655;SDS011;7928;43.614;1.456;2023-03-05T05:33:34;37.17;;;26.97;;
15655;SDS011;7928;43.614;1.456;2023-03-05T05:36:02;39.53;;;26.10;;
15655;SDS011;7928;43.614;1.456;2023-03-05T05:38:29;40.73;;;25.97;;
15655;SDS011;7928;43.614;1.456;2023-03-05T05:41:00;41.07;;;26.47;;
15655;SDS011;7928;43.614;1.456;2023-03-05T05:43:29;40.37;;;27.13;;
15655;SDS011;7928;43.614;1.456;2023-03-05T05:45:57;38.50;;;26.87;;
15655;SDS011;7928;43.614;1.456;2023-03-05T05:48:27;34.53;;;24.70;;
15655;SDS011;7928;43.614;1.456;2023-03-05T05:50:55;43.10;;;27.93;;
15655;SDS011;7928;43.614;1.456;2023-03-05T05:53:22;40.17;;;27.10;;
15655;SDS011;7928;43.614;1.456;2023-03-05T05:55:50;36.20;;;25.77;;
15655;SDS011;7928;43.614;1.456;2023-03-05T05:58:17;40.30;;;26.57;;
15655;SDS011;7928;43.614;1.456;2023-03-05T06:00:44;41.70;;;27.00;;
15655;SDS011;7928;43.614;1.456;2023-03-05T06:03:11;36.33;;;25.50;;
15655;SDS011;7928;43.614;1.456;2023-03-05T06:05:40;41.50;;;27.03;;
15655;SDS011;7928;43.614;1.456;2023-03-05T06:08:08;44.80;;;26.37;;
15655;SDS011;7928;43.614;1.456;2023-03-05T06:10:35;39.80;;;26.97;;
15655;SDS011;7928;43.614;1.456;2023-03-05T06:13:02;44.83;;;28.13;;
15655;SDS011;7928;43.614;1.456;2023-03-05T06:15:29;38.63;;;25.83;;
15655;SDS011;7928;43.614;1.456;2023-03-05T06:17:57;36.97;;;25.47;;
15655;SDS011;7928;43.614;1.456;2023-03-05T06:20:24;40.53;;;26.70;;
15655;SDS011;7928;43.614;1.456;2023-03-05T06:22:53;38.47;;;26.70;;
15655;SDS011;7928;43.614;1.456;2023-03-05T06:25:20;38.33;;;27.07;;
15655;SDS011;7928;43.614;1.456;2023-03-05T06:27:47;39.37;;;27.23;;
15655;SDS011;7928;43.614;1.456;2023-03-05T06:30:14;38.73;;;25.90;;
15655;SDS011;7928;43.614;1.456;2023-03-05T06:32:41;39.40;;;25.57;;
15655;SDS011;7928;43.614;1.456;2023-03-05T06:35:08;40.53;;;27.47;;
15655;SDS011;7928;43.614;1.456;2023-03-05T06:37:35;37.93;;;27.20;;
15655;SDS011;7928;43.614;1.456;2023-03-05T06:40:04;43.93;;;27.90;;
15655;SDS011;7928;43.614;1.456;2023-03-05T06:42:32;39.27;;;26.00;;
15655;SDS011;7928;43.614;1.456;2023-03-05T06:45:00;40.83;;;26.17;;
15655;SDS011;7928;43.614;1.456;2023-03-05T06:47:26;35.77;;;25.80;;
15655;SDS011;7928;43.614;1.456;2023-03-05T06:49:53;39.37;;;26.53;;
15655;SDS011;7928;43.614;1.456;2023-03-05T06:52:20;41.00;;;26.67;;
15655;SDS011;7928;43.614;1.456;2023-03-05T06:54:47;44.97;;;28.27;;
15655;SDS011;7928;43.614;1.456;2023-03-05T06:57:16;39.67;;;27.77;;
15655;SDS011;7928;43.614;1.456;2023-03-05T06:59:43;41.87;;;26.13;;
15655;SDS011;7928;43.614;1.456;2023-03-05T07:02:10;38.67;;;27.17;;
15655;SDS011;7928;43.614;1.456;2023-03-05T07:04:37;36.37;;;25.37;;
15655;SDS011;7928;43.614;1.456;2023-03-05T07:07:05;40.53;;;26.27;;
15655;SDS011;7928;43.614;1.456;2023-03-05T07:09:32;38.40;;;24.83;;
15655;SDS011;7928;43.614;1.456;2023-03-05T07:11:59;40.83;;;27.07;;
15655;SDS011;7928;43.614;1.456;2023-03-05T07:14:30;36.90;;;25.17;;
15655;SDS011;7928;43.614;1.456;2023-03-05T07:16:57;38.37;;;27.43;;
15655;SDS011;7928;43.614;1.456;2023-03-05T07:19:24;37.97;;;26.13;;
15655;SDS011;7928;43.614;1.456;2023-03-05T07:21:51;40.27;;;27.20;;
15655;SDS011;7928;43.614;1.456;2023-03-05T07:24:18;37.17;;;25.43;;
15655;SDS011;7928;43.614;1.456;2023-03-05T07:26:45;37.50;;;26.80;;
15655;SDS011;7928;43.614;1.456;2023-03-05T07:29:12;40.57;;;26.43;;
15655;SDS011;7928;43.614;1.456;2023-03-05T07:31:40;37.60;;;25.53;;
15655;SDS011;7928;43.614;1.456;2023-03-05T07:34:08;41.67;;;27.27;;
15655;SDS011;7928;43.614;1.456;2023-03-05T07:36:35;41.53;;;26.00;;
15655;SDS011;7928;43.614;1.456;2023-03-05T07:39:02;37.73;;;25.77;;
15655;SDS011;7928;43.614;1.456;2023-03-05T07:41:30;36.27;;;26.33;;
15655;SDS011;7928;43.614;1.456;2023-03-05T07:43:57;38.53;;;25.50;;
15655;SDS011;7928;43.614;1.456;2023-03-05T07:46:25;36.20;;;25.23;;
15655;SDS011;7928;43.614;1.456;2023-03-05T07:48:55;39.57;;;27.60;;
15655;SDS011;7928;43.614;1.456;2023-03-05T07:51:23;35.83;;;26.17;;
15655;SDS011;7928;43.614;1.456;2023-03-05T07:53:51;37.17;;;26.37;;
15655;SDS011;7928;43.614;1.456;2023-03-05T07:56:22;37.93;;;27.10;;
15655;SDS011;7928;43.614;1.456;2023-03-05T07:58:50;36.27;;;25.77;;
15655;SDS011;7928;43.614;1.456;2023-03-05T08:01:17;35.57;;;24.43;;
15655;SDS011;7928;43.614;1.456;2023-03-05T08:03:44;36.57;;;25.60;;
15655;SDS011;7928;43.614;1.456;2023-03-05T08:06:12;36.70;;;26.13;;
15655;SDS011;7928;43.614;1.456;2023-03-05T08:08:39;37.97;;;26.13;;
15655;SDS011;7928;43.614;1.456;2023-03-05T08:11:07;35.37;;;24.87;;
15655;SDS011;7928;43.614;1.456;2023-03-05T08:13:35;36.57;;;25.37;;
15655;SDS011;7928;43.614;1.456;2023-03-05T08:16:03;33.93;;;25.13;;
15655;SDS011;7928;43.614;1.456;2023-03-05T08:18:31;36.10;;;25.73;;
15655;SDS011;7928;43.614;1.456;2023-03-05T08:20:58;35.10;;;26.20;;
15655;SDS011;7928;43.614;1.456;2023-03-05T08:23:27;39.17;;;26.20;;
15655;SDS011;7928;43.614;1.456;2023-03-05T08:25:54;36.70;;;25.97;;
15655;SDS011;7928;43.614;1.456;2023-03-05T08:28:21;35.07;;;25.47;;
15655;SDS011;7928;43.614;1.456;2023-03-05T08:30:48;39.20;;;25.67;;
15655;SDS011;7928;43.614;1.456;2023-03-05T08:33:15;36.03;;;24.53;;
15655;SDS011;7928;43.614;1.456;2023-03-05T08:35:43;36.87;;;25.30;;
15655;SDS011;7928;43.614;1.456;2023-03-05T08:38:10;36.37;;;24.83;;
15655;SDS011;7928;43.614;1.456;2023-03-05T08:40:39;37.47;;;26.53;;
15655;SDS011;7928;43.614;1.456;2023-03-05T08:43:07;34.83;;;25.53;;
15655;SDS011;7928;43.614;1.456;2023-03-05T08:45:34;36.40;;;26.20;;
15655;SDS011;7928;43.614;1.456;2023-03-05T08:48:01;40.63;;;28.17;;
15655;SDS011;7928;43.614;1.456;2023-03-05T08:50:28;37.83;;;26.70;;
15655;SDS011;7928;43.614;1.456;2023-03-05T08:52:55;33.47;;;25.10;;
15655;SDS011;7928;43.614;1.456;2023-03-05T08:55:22;36.17;;;25.23;;
15655;SDS011;7928;43.614;1.456;2023-03-05T08:57:50;37.23;;;26.60;;
15655;SDS011;7928;43.614;1.456;2023-03-05T09:00:18;33.90;;;26.33;;
15655;SDS011;7928;43.614;1.456;2023-03-05T09:02:45;35.20;;;25.87;;
15655;SDS011;7928;43.614;1.456;2023-03-05T09:05:12;37.97;;;26.83;;
15655;SDS011;7928;43.614;1.456;2023-03-05T09:07:39;35.87;;;25.67;;
15655;SDS011;7928;43.614;1.456;2023-03-05T09:10:07;34.37;;;25.67;;
15655;SDS011;7928;43.614;1.456;2023-03-05T09:12:36;37.23;;;27.70;;
15655;SDS011;7928;43.614;1.456;2023-03-05T09:15:06;34.80;;;26.40;;
15655;SDS011;7928;43.614;1.456;2023-03-05T09:17:34;33.47;;;24.20;;
15655;SDS011;7928;43.614;1.456;2023-03-05T09:20:02;38.53;;;26.40;;
15655;SDS011;7928;43.614;1.456;2023-03-05T09:22:29;36.90;;;24.27;;
15655;SDS011;7928;43.614;1.456;2023-03-05T09:24:57;33.47;;;25.07;;
15655;SDS011;7928;43.614;1.456;2023-03-05T09:27:24;34.97;;;24.40;;
15655;SDS011;7928;43.614;1.456;2023-03-05T09:29:51;35.53;;;24.83;;
15655;SDS011;7928;43.614;1.456;2023-03-05T09:32:19;36.23;;;25.63;;
15655;SDS011;7928;43.614;1.456;2023-03-05T09:34:46;32.60;;;23.83;;
15655;SDS011;7928;43.614;1.456;2023-03-05T09:37:13;35.53;;;24.43;;
15655;SDS011;7928;43.614;1.456;2023-03-05T09:39:40;33.97;;;25.40;;
15655;SDS011;7928;43.614;1.456;2023-03-05T09:42:16;36.00;;;25.70;;
15655;SDS011;7928;43.614;1.456;2023-03-05T09:44:59;35.70;;;24.23;;
15655;SDS011;7928;43.614;1.456;2023-03-05T09:47:44;35.47;;;25.90;;
15655;SDS011;7928;43.614;1.456;2023-03-05T09:50:30;32.10;;;24.00;;
15655;SDS011;7928;43.614;1.456;2023-03-05T09:53:02;34.90;;;25.73;;
15655;SDS011;7928;43.614;1.456;2023-03-05T09:55:34;36.73;;;25.10;;
15655;SDS011;7928;43.614;1.456;2023-03-05T09:58:05;36.40;;;24.20;;
15655;SDS011;7928;43.614;1.456;2023-03-05T10:00:38;35.93;;;25.37;;
15655;SDS011;7928;43.614;1.456;2023-03-05T10:03:12;35.40;;;25.77;;
15655;SDS011;7928;43.614;1.456;2023-03-05T10:05:55;33.70;;;25.20;;
15655;SDS011;7928;43.614;1.456;2023-03-05T10:08:28;37.13;;;25.80;;
15655;SDS011;7928;43.614;1.456;2023-03-05T10:11:03;38.63;;;25.57;;
15655;SDS011;7928;43.614;1.456;2023-03-05T10:13:37;32.53;;;25.20;;
15655;SDS011;7928;43.614;1.456;2023-03-05T10:16:27;34.23;;;25.90;;
15655;SDS011;7928;43.614;1.456;2023-03-05T10:19:11;35.07;;;24.73;;
15655;SDS011;7928;43.614;1.456;2023-03-05T10:21:45;34.23;;;25.37;;
15655;SDS011;7928;43.614;1.456;2023-03-05T10:24:20;35.23;;;24.27;;
15655;SDS011;7928;43.614;1.456;2023-03-05T10:26:58;30.70;;;24.37;;
15655;SDS011;7928;43.614;1.456;2023-03-05T10:29:37;30.87;;;24.40;;
15655;SDS011;7928;43.614;1.456;2023-03-05T10:32:19;36.93;;;26.20;;
15655;SDS011;7928;43.614;1.456;2023-03-05T10:41:02;32.17;;;25.40;;
15655;SDS011;7928;43.614;1.456;2023-03-05T10:43:37;28.23;;;24.47;;
15655;SDS011;7928;43.614;1.456;2023-03-05T10:46:11;28.10;;;23.77;;
15655;SDS011;7928;43.614;1.456;2023-03-05T10:48:43;30.00;;;25.87;;
15655;SDS011;7928;43.614;1.456;2023-03-05T10:51:17;34.37;;;24.70;;
15655;SDS011;7928;43.614;1.456;2023-03-05T10:53:50;27.90;;;23.57;;
15655;SDS011;7928;43.614;1.456;2023-03-05T10:56:21;30.70;;;24.90;;
15655;SDS011;7928;43.614;1.456;2023-03-05T10:58:50;27.43;;;24.33;;
15655;SDS011;7928;43.614;1.456;2023-03-05T11:01:19;27.10;;;24.20;;
15655;SDS011;7928;43.614;1.456;2023-03-05T11:03:51;28.23;;;24.03;;
15655;SDS011;7928;43.614;1.456;2023-03-05T11:06:31;28.50;;;23.73;;
15655;SDS011;7928;43.614;1.456;2023-03-05T11:09:22;28.83;;;24.17;;
15655;SDS011;7928;43.614;1.456;2023-03-05T11:12:09;28.60;;;23.50;;
15655;SDS011;7928;43.614;1.456;2023-03-05T11:14:39;26.77;;;23.17;;
15655;SDS011;7928;43.614;1.456;2023-03-05T11:17:25;28.90;;;24.13;;
15655;SDS011;7928;43.614;1.456;2023-03-05T11:20:22;27.67;;;23.53;;
15655;SDS011;7928;43.614;1.456;2023-03-05T11:23:03;27.20;;;23.97;;
15655;SDS011;7928;43.614;1.456;2023-03-05T11:25:34;25.87;;;23.27;;
15655;SDS011;7928;43.614;1.456;2023-03-05T11:28:16;27.33;;;23.73;;
15655;SDS011;7928;43.614;1.456;2023-03-05T11:30:52;25.43;;;22.67;;
15655;SDS011;7928;43.614;1.456;2023-03-05T11:33:22;25.73;;;23.07;;
15655;SDS011;7928;43.614;1.456;2023-03-05T11:35:51;25.63;;;22.73;;
15655;SDS011;7928;43.614;1.456;2023-03-05T11:38:20;26.93;;;21.93;;
15655;SDS011;7928;43.614;1.456;2023-03-05T11:40:49;23.00;;;20.58;;
15655;SDS011;7928;43.614;1.456;2023-03-05T11:43:19;23.42;;;20.98;;
15655;SDS011;7928;43.614;1.456;2023-03-05T11:45:48;24.02;;;21.33;;
15655;SDS011;7928;43.614;1.456;2023-03-05T11:48:19;25.63;;;22.17;;
15655;SDS011;7928;43.614;1.456;2023-03-05T11:50:52;24.98;;;22.38;;
15655;SDS011;7928;43.614;1.456;2023-03-05T11:53:23;24.65;;;22.15;;
15655;SDS011;7928;43.614;1.456;2023-03-05T11:55:53;24.50;;;21.88;;
15655;SDS011;7928;43.614;1.456;2023-03-05T11:58:27;25.55;;;22.92;;
15655;SDS011;7928;43.614;1.456;2023-03-05T12:00:57;25.90;;;23.10;;
15655;SDS011;7928;43.614;1.456;2023-03-05T12:03:28;25.88;;;23.25;;
15655;SDS011;7928;43.614;1.456;2023-03-05T12:05:59;24.67;;;22.13;;
15655;SDS011;7928;43.614;1.456;2023-03-05T12:08:31;24.35;;;21.95;;
15655;SDS011;7928;43.614;1.456;2023-03-05T12:11:03;24.38;;;21.95;;
15655;SDS011;7928;43.614;1.456;2023-03-05T12:13:34;24.55;;;22.15;;
15655;SDS011;7928;43.614;1.456;2023-03-05T12:16:08;27.00;;;24.23;;
15655;SDS011;7928;43.614;1.456;2023-03-05T12:18:47;24.92;;;22.52;;
15655;SDS011;7928;43.614;1.456;2023-03-05T12:21:26;25.58;;;22.73;;
15655;SDS011;7928;43.614;1.456;2023-03-05T12:23:59;25.48;;;22.88;;
15655;SDS011;7928;43.614;1.456;2023-03-05T12:29:28;24.88;;;22.38;;
15655;SDS011;7928;43.614;1.456;2023-03-05T12:32:03;23.08;;;20.65;;
15655;SDS011;7928;43.614;1.456;2023-03-05T12:34:35;24.88;;;21.92;;
15655;SDS011;7928;43.614;1.456;2023-03-05T12:37:14;24.77;;;21.77;;
15655;SDS011;7928;43.614;1.456;2023-03-05T12:40:19;23.92;;;21.58;;
15655;SDS011;7928;43.614;1.456;2023-03-05T12:42:52;23.58;;;21.13;;
15655;SDS011;7928;43.614;1.456;2023-03-05T12:45:28;26.63;;;21.70;;
15655;SDS011;7928;43.614;1.456;2023-03-05T12:51:26;23.38;;;21.02;;
15655;SDS011;7928;43.614;1.456;2023-03-05T12:56:57;24.45;;;22.02;;
15655;SDS011;7928;43.614;1.456;2023-03-05T12:59:27;23.15;;;20.70;;
15655;SDS011;7928;43.614;1.456;2023-03-05T13:02:00;24.25;;;21.50;;
15655;SDS011;7928;43.614;1.456;2023-03-05T13:04:35;22.33;;;20.05;;
15655;SDS011;7928;43.614;1.456;2023-03-05T13:07:12;23.20;;;20.20;;
15655;SDS011;7928;43.614;1.456;2023-03-05T13:09:44;22.65;;;20.27;;
15655;SDS011;7928;43.614;1.456;2023-03-05T13:12:18;22.95;;;20.15;;
15655;SDS011;7928;43.614;1.456;2023-03-05T13:14:46;22.38;;;19.98;;
15655;SDS011;7928;43.614;1.456;2023-03-05T13:17:24;22.38;;;19.92;;
15655;SDS011;7928;43.614;1.456;2023-03-05T13:19:57;25.50;;;21.50;;
15655;SDS011;7928;43.614;1.456;2023-03-05T13:22:25;23.60;;;19.98;;
15655;SDS011;7928;43.614;1.456;2023-03-05T13:25:05;22.38;;;20.13;;
15655;SDS011;7928;43.614;1.456;2023-03-05T13:27:40;21.70;;;19.30;;
15655;SDS011;7928;43.614;1.456;2023-03-05T13:30:18;21.85;;;19.60;;
15655;SDS011;7928;43.614;1.456;2023-03-05T13:32:48;20.25;;;18.15;;
15655;SDS011;7928;43.614;1.456;2023-03-05T13:35:17;21.92;;;19.00;;
15655;SDS011;7928;43.614;1.456;2023-03-05T13:37:46;20.60;;;18.48;;
15655;SDS011;7928;43.614;1.456;2023-03-05T13:40:19;23.27;;;19.58;;
15655;SDS011;7928;43.614;1.456;2023-03-05T13:42:48;21.42;;;18.60;;
15655;SDS011;7928;43.614;1.456;2023-03-05T13:45:22;23.73;;;19.13;;
15655;SDS011;7928;43.614;1.456;2023-03-05T13:47:52;21.13;;;18.85;;
15655;SDS011;7928;43.614;1.456;2023-03-05T13:50:22;20.70;;;18.48;;
15655;SDS011;7928;43.614;1.456;2023-03-05T13:52:51;20.30;;;18.17;;
15655;SDS011;7928;43.614;1.456;2023-03-05T13:55:20;22.00;;;18.85;;
15655;SDS011;7928;43.614;1.456;2023-03-05T13:57:48;21.00;;;19.00;;
15655;SDS011;7928;43.614;1.456;2023-03-05T14:00:27;20.60;;;18.40;;
15655;SDS011;7928;43.614;1.456;2023-03-05T14:02:57;20.23;;;18.10;;
15655;SDS011;7928;43.614;1.456;2023-03-05T14:05:26;20.70;;;18.50;;
15655;SDS011;7928;43.614;1.456;2023-03-05T14:07:55;21.05;;;18.92;;
15655;SDS011;7928;43.614;1.456;2023-03-05T14:10:28;19.88;;;17.85;;
15655;SDS011;7928;43.614;1.456;2023-03-05T14:12:58;21.17;;;18.98;;
15655;SDS011;7928;43.614;1.456;2023-03-05T14:15:28;21.77;;;19.48;;
15655;SDS011;7928;43.614;1.456;2023-03-05T14:18:07;20.70;;;18.58;;
15655;SDS011;7928;43.614;1.456;2023-03-05T14:20:56;25.15;;;18.55;;
15655;SDS011;7928;43.614;1.456;2023-03-05T14:23:30;19.38;;;17.35;;
15655;SDS011;7928;43.614;1.456;2023-03-05T14:26:18;19.38;;;17.35;;
15655;SDS011;7928;43.614;1.456;2023-03-05T14:28:51;18.95;;;16.77;;
15655;SDS011;7928;43.614;1.456;2023-03-05T14:31:20;18.05;;;16.25;;
15655;SDS011;7928;43.614;1.456;2023-03-05T14:33:49;18.10;;;16.17;;
15655;SDS011;7928;43.614;1.456;2023-03-05T14:36:22;18.77;;;16.77;;
15655;SDS011;7928;43.614;1.456;2023-03-05T14:38:50;17.65;;;15.75;;
15655;SDS011;7928;43.614;1.456;2023-03-05T14:41:33;17.75;;;15.98;;
15655;SDS011;7928;43.614;1.456;2023-03-05T14:44:07;18.13;;;16.23;;
15655;SDS011;7928;43.614;1.456;2023-03-05T14:46:37;19.02;;;16.52;;
15655;SDS011;7928;43.614;1.456;2023-03-05T14:49:05;18.73;;;16.48;;
15655;SDS011;7928;43.614;1.456;2023-03-05T14:51:32;17.35;;;15.55;;
15655;SDS011;7928;43.614;1.456;2023-03-05T14:54:03;18.60;;;16.73;;
15655;SDS011;7928;43.614;1.456;2023-03-05T14:56:31;19.08;;;17.13;;
15655;SDS011;7928;43.614;1.456;2023-03-05T14:59:00;22.10;;;17.98;;
15655;SDS011;7928;43.614;1.456;2023-03-05T15:01:27;18.75;;;16.73;;
15655;SDS011;7928;43.614;1.456;2023-03-05T15:03:54;18.95;;;16.98;;
15655;SDS011;7928;43.614;1.456;2023-03-05T15:06:23;19.30;;;17.08;;